Time,TemperatureF,DewpointF,PressureIn,WindDirection,WindDirectionDegrees,WindSpeedMPH,WindSpeedGustMPH,Humidity,HourlyPrecipIn,Conditions,Clouds,dailyrainin,SoftwareType,DateUTC
2013-11-24 00:22:00,42.0,25.0,30.31,SSW,199,0.0,2.0,50,0.00,,,0.00,,2013-11-24 05:22:00,
2013-11-24 00:43:00,41.0,24.0,30.32,WSW,238,1.0,4.0,50,0.00,,,0.00,,2013-11-24 05:43:00,
2013-11-24 00:53:00,41.0,24.0,30.32,East,95,0.0,2.0,50,0.00,,,0.00,,2013-11-24 05:53:00,
2013-11-24 01:22:00,40.0,21.0,30.32,WSW,246,0.0,4.0,47,0.00,,,0.00,,2013-11-24 06:22:00,
2013-11-24 01:42:00,39.0,20.0,30.32,East,79,0.0,3.0,47,0.00,,,0.00,,2013-11-24 06:42:00,
2013-11-24 01:52:00,39.0,20.0,30.33,SW,228,2.0,5.0,46,0.00,,,0.00,,2013-11-24 06:52:00,
2013-11-24 02:22:00,38.0,19.0,30.35,ENE,57,1.0,6.0,46,0.00,,,0.00,,2013-11-24 07:22:00,
2013-11-24 02:42:00,37.0,18.0,30.35,SW,224,1.0,3.0,45,0.00,,,0.00,,2013-11-24 07:42:00,
2013-11-24 02:52:00,37.0,20.0,30.36,NE,42,0.0,3.0,49,0.00,,,0.00,,2013-11-24 07:52:00,
2013-11-24 03:22:00,35.0,17.0,30.37,WSW,242,0.0,5.0,48,0.00,,,0.00,,2013-11-24 08:22:00,
2013-11-24 03:42:00,35.0,17.0,30.37,WSW,240,1.0,5.0,48,0.00,,,0.00,,2013-11-24 08:42:00,
2013-11-24 03:53:00,34.0,16.0,30.37,WSW,242,0.0,6.0,48,0.00,,,0.00,,2013-11-24 08:53:00,
2013-11-24 04:22:00,33.0,16.0,30.39,SW,229,0.0,2.0,49,0.00,,,0.00,,2013-11-24 09:22:00,
2013-11-24 04:43:00,33.0,16.0,30.40,WNW,284,0.0,2.0,49,0.00,,,0.00,,2013-11-24 09:43:00,
2013-11-24 04:54:00,33.0,16.0,30.40,ENE,59,0.0,2.0,50,0.00,,,0.00,,2013-11-24 09:54:00,
2013-11-24 08:42:00,30.0,14.0,30.50,East,92,0.0,1.0,51,0.00,,,0.00,,2013-11-24 13:42:00,
2013-11-24 08:52:00,31.0,14.0,30.53,SW,235,1.0,6.0,48,0.00,,,0.00,,2013-11-24 13:52:00,
2013-11-24 09:11:00,32.0,15.0,30.53,SW,230,1.0,3.0,48,0.00,,,0.00,,2013-11-24 14:11:00,
2013-11-24 09:22:00,32.0,14.0,30.55,WSW,246,2.0,6.0,46,0.00,,,0.00,,2013-11-24 14:22:00,
2013-11-24 09:42:00,33.0,15.0,30.55,SW,230,0.0,5.0,46,0.00,,,0.00,,2013-11-24 14:42:00,
2013-11-24 09:53:00,34.0,15.0,30.55,WSW,245,1.0,5.0,45,0.00,,,0.00,,2013-11-24 14:53:00,
2013-11-24 10:22:00,34.0,14.0,30.56,ESE,105,0.0,3.0,43,0.00,,,0.00,,2013-11-24 15:22:00,
2013-11-24 10:44:00,34.0,13.0,30.57,East,98,1.0,5.0,42,0.00,,,0.00,,2013-11-24 15:44:00,
2013-11-24 10:53:00,34.0,12.0,30.56,WSW,250,1.0,5.0,40,0.00,,,0.00,,2013-11-24 15:53:00,
2013-11-24 11:23:00,36.0,13.0,30.57,WSW,243,1.0,6.0,39,0.00,,,0.00,,2013-11-24 16:23:00,
2013-11-24 11:42:00,36.0,13.0,30.57,WSW,244,0.0,4.0,39,0.00,,,0.00,,2013-11-24 16:42:00,
2013-11-24 11:53:00,36.0,13.0,30.55,ESE,119,1.0,6.0,38,0.00,,,0.00,,2013-11-24 16:53:00,
2013-11-24 12:12:00,37.0,13.0,30.55,SSW,203,0.0,9.0,37,0.00,,,0.00,,2013-11-24 17:12:00,
2013-11-24 12:23:00,38.0,13.0,30.54,SW,228,1.0,6.0,36,0.00,,,0.00,,2013-11-24 17:23:00,
2013-11-24 12:43:00,38.0,13.0,30.53,ENE,67,1.0,5.0,35,0.00,,,0.00,,2013-11-24 17:43:00,
2013-11-24 12:52:00,38.0,13.0,30.52,SW,234,1.0,6.0,35,0.00,,,0.00,,2013-11-24 17:52:00,
2013-11-24 13:22:00,39.0,13.0,30.51,NNW,327,1.0,9.0,34,0.00,,,0.00,,2013-11-24 18:22:00,
2013-11-24 13:33:00,39.0,13.0,30.51,NNW,327,1.0,9.0,34,0.00,,,0.00,,2013-11-24 18:33:00,
2013-11-24 13:42:00,39.0,13.0,30.51,NNW,327,1.0,9.0,34,0.00,,,0.00,,2013-11-24 18:42:00,
2013-11-24 13:52:00,40.0,13.0,30.50,West,267,0.0,9.0,33,0.00,,,0.00,,2013-11-24 18:52:00,
2013-11-24 14:22:00,40.0,11.0,30.50,NW,306,0.0,6.0,30,0.00,,,0.00,,2013-11-24 19:22:00,
2013-11-24 14:42:00,40.0,10.0,30.50,West,261,2.0,6.0,29,0.00,,,0.00,,2013-11-24 19:42:00,
2013-11-24 14:52:00,41.0,11.0,30.49,SW,225,1.0,4.0,29,0.00,,,0.00,,2013-11-24 19:52:00,
2013-11-24 15:22:00,42.0,12.0,30.49,NNE,21,1.0,6.0,29,0.00,,,0.00,,2013-11-24 20:22:00,
2013-11-24 15:42:00,42.0,12.0,30.50,SSW,211,1.0,5.0,29,0.00,,,0.00,,2013-11-24 20:42:00,
2013-11-24 15:52:00,41.0,10.0,30.50,SSW,213,1.0,4.0,27,0.00,,,0.00,,2013-11-24 20:52:00,
2013-11-24 16:11:00,40.0,9.0,30.50,SW,225,0.0,3.0,27,0.00,,,0.00,,2013-11-24 21:11:00,
2013-11-24 16:22:00,40.0,10.0,30.50,SW,222,0.0,3.0,28,0.00,,,0.00,,2013-11-24 21:22:00,
2013-11-24 16:43:00,39.0,9.0,30.50,SW,233,0.0,4.0,28,0.00,,,0.00,,2013-11-24 21:43:00,
2013-11-24 16:54:00,39.0,9.0,30.50,SW,234,0.0,2.0,29,0.00,,,0.00,,2013-11-24 21:54:00,
2013-11-24 17:23:00,38.0,8.0,30.51,SE,132,0.0,2.0,28,0.00,,,0.00,,2013-11-24 22:23:00,
2013-11-24 17:43:00,37.0,7.0,30.51,West,269,0.0,1.0,28,0.00,,,0.00,,2013-11-24 22:43:00,
2013-11-24 17:53:00,36.0,7.0,30.53,NE,50,0.0,1.0,29,0.00,,,0.00,,2013-11-24 22:53:00,
2013-11-24 18:22:00,35.0,7.0,30.53,West,265,0.0,1.0,31,0.00,,,0.00,,2013-11-24 23:22:00,
2013-11-24 18:42:00,35.0,9.0,30.54,West,264,0.0,0.0,34,0.00,,,0.00,,2013-11-24 23:42:00,
2013-11-24 18:52:00,34.0,9.0,30.55,SW,215,0.0,1.0,34,0.00,,,0.00,,2013-11-24 23:52:00,
2013-11-24 19:12:00,34.0,9.0,30.56,SW,224,0.0,1.0,34,0.00,,,0.00,,2013-11-25 00:12:00,
2013-11-24 19:22:00,33.0,8.0,30.57,SW,233,0.0,1.0,34,0.00,,,0.00,,2013-11-25 00:22:00,
2013-11-24 19:42:00,33.0,8.0,30.57,WSW,240,0.0,1.0,35,0.00,,,0.00,,2013-11-25 00:42:00,
2013-11-24 19:52:00,32.0,9.0,30.57,WSW,240,0.0,0.0,38,0.00,,,0.00,,2013-11-25 00:52:00,
2013-11-24 20:11:00,32.0,13.0,30.58,WSW,240,0.0,0.0,44,0.00,,,0.00,,2013-11-25 01:11:00,
2013-11-24 20:22:00,30.0,12.0,30.58,WSW,240,0.0,0.0,46,0.00,,,0.00,,2013-11-25 01:22:00,
2013-11-24 20:42:00,30.0,11.0,30.58,WSW,240,0.0,0.0,45,0.00,,,0.00,,2013-11-25 01:42:00,
2013-11-24 20:53:00,29.0,12.0,30.59,WSW,240,0.0,0.0,48,0.00,,,0.00,,2013-11-25 01:53:00,
2013-11-24 21:22:00,28.0,12.0,30.60,WSW,240,0.0,0.0,51,0.00,,,0.00,,2013-11-25 02:22:00,
2013-11-24 21:42:00,27.0,11.0,30.60,WSW,240,0.0,0.0,50,0.00,,,0.00,,2013-11-25 02:42:00,
2013-11-24 22:22:00,26.0,11.0,30.61,WSW,240,0.0,1.0,52,0.00,,,0.00,,2013-11-25 03:22:00,
2013-11-24 22:43:00,26.0,12.0,30.61,WSW,240,0.0,0.0,56,0.00,,,0.00,,2013-11-25 03:43:00,
2013-11-24 22:53:00,26.0,13.0,30.61,WSW,240,0.0,0.0,57,0.00,,,0.00,,2013-11-25 03:53:00,
2013-11-24 23:13:00,25.0,12.0,30.60,WSW,240,0.0,0.0,56,0.00,,,0.00,,2013-11-25 04:13:00,
2013-11-24 23:23:00,25.0,12.0,30.60,WSW,240,0.0,0.0,56,0.00,,,0.00,,2013-11-25 04:23:00,
2013-11-24 23:53:00,25.0,13.0,30.60,WSW,240,0.0,0.0,59,0.00,,,0.00,,2013-11-25 04:53:00,